Time;durP1;ratioP1;P1;durP2;ratioP2;P2;SDS_P1;SDS_P2;PMS_P1;PMS_P2;Temp;Humidity;BMP_temperature;BMP_pressure;BME280_temperature;BME280_humidity;BME280_pressure;Samples;Min_cycle;Max_cycle;Signal;HPM_P1;HPM_P2
2023/04/03 00:02:12;;;;;;;0.40;0.40;;;8.90;99.90;;;;;;1874356;75;21215;-83
2023/04/03 00:05:04;;;;;;;0.40;0.40;;;8.90;99.90;;;;;;1885023;75;21119;-81
2023/04/03 00:07:55;;;;;;;0.47;0.30;;;8.90;99.90;;;;;;1871705;76;21111;-81
2023/04/03 00:10:47;;;;;;;0.40;0.30;;;8.90;99.90;;;;;;1880578;75;21115;-81
2023/04/03 00:13:39;;;;;;;0.30;0.20;;;9.00;99.90;;;;;;1881787;75;21188;-81
2023/04/03 00:16:30;;;;;;;0.95;0.57;;;9.00;99.90;;;;;;1883271;75;21217;-81
2023/04/03 00:19:22;;;;;;;0.50;0.30;;;9.00;99.90;;;;;;1871381;77;21152;-81
2023/04/03 00:22:13;;;;;;;0.20;0.20;;;9.00;99.90;;;;;;1881243;75;21118;-81
2023/04/03 00:25:05;;;;;;;0.37;0.37;;;9.00;99.90;;;;;;1882045;75;21157;-81
2023/04/03 00:27:56;;;;;;;0.28;0.20;;;9.00;99.90;;;;;;1882836;75;21188;-81
2023/04/03 00:30:49;;;;;;;0.50;0.20;;;9.00;99.90;;;;;;1887904;75;21175;-81
2023/04/03 00:33:40;;;;;;;0.30;0.23;;;9.00;99.90;;;;;;1896239;75;21195;-82
2023/04/03 00:36:32;;;;;;;0.72;0.40;;;9.00;99.90;;;;;;1883383;75;21195;-83
2023/04/03 00:39:24;;;;;;;0.57;0.57;;;9.10;99.90;;;;;;1887087;74;21129;-82
2023/04/03 00:42:16;;;;;;;0.20;0.20;;;9.00;99.90;;;;;;1891313;75;21259;-82
2023/04/03 00:45:30;;;;;;;0.30;0.30;;;9.00;99.90;;;;;;1889386;75;21123;-82
2023/04/03 00:48:25;;;;;;;0.37;0.30;;;9.00;99.90;;;;;;1877694;76;21106;-82
2023/04/03 00:51:20;;;;;;;0.20;0.20;;;8.90;99.90;;;;;;1883963;75;21117;-82
2023/04/03 00:54:11;;;;;;;0.30;0.30;;;8.90;99.90;;;;;;1886937;75;21596;-82
2023/04/03 00:57:04;;;;;;;1.05;0.50;;;8.90;99.90;;;;;;1869173;76;21105;-82
2023/04/03 01:00:00;;;;;;;0.30;0.23;;;8.80;99.90;;;;;;1875565;76;21107;-82
2023/04/03 01:02:52;;;;;;;0.30;0.30;;;8.80;99.90;;;;;;1874135;76;21113;-81
2023/04/03 01:05:43;;;;;;;0.50;0.30;;;8.80;99.90;;;;;;1898906;75;21109;-81
2023/04/03 01:08:35;;;;;;;1.32;0.30;;;8.80;99.90;;;;;;1891083;75;21133;-82
2023/04/03 01:11:27;;;;;;;0.72;0.70;;;8.80;99.90;;;;;;1880524;75;21104;-82
2023/04/03 01:14:18;;;;;;;0.20;0.20;;;8.80;99.90;;;;;;1877614;75;21488;-82
2023/04/03 01:17:29;;;;;;;1.65;0.30;;;8.90;99.90;;;;;;1888777;75;21160;-82
2023/04/03 01:20:46;;;;;;;0.57;0.28;;;8.90;99.90;;;;;;1890637;75;21101;-82
2023/04/03 01:23:55;;;;;;;0.50;0.40;;;8.90;99.90;;;;;;1891026;75;21146;-82
2023/04/03 01:26:46;;;;;;;0.50;0.28;;;8.90;99.90;;;;;;1890911;75;21135;-82
2023/04/03 01:29:39;;;;;;;0.23;0.23;;;8.80;99.90;;;;;;1890670;75;21118;-82
2023/04/03 01:32:31;;;;;;;0.40;0.40;;;8.70;99.90;;;;;;1905561;75;21105;-82
2023/04/03 01:35:22;;;;;;;0.75;0.40;;;8.70;99.90;;;;;;1892019;75;21192;-82
2023/04/03 01:38:14;;;;;;;2.35;0.50;;;8.80;99.90;;;;;;1888016;75;21577;-82
2023/04/03 01:41:06;;;;;;;1.47;0.35;;;8.80;99.90;;;;;;1903277;75;21086;-82
2023/04/03 01:43:57;;;;;;;1.40;0.50;;;8.80;99.90;;;;;;1898258;75;21410;-82
2023/04/03 01:46:49;;;;;;;0.57;0.50;;;8.80;99.90;;;;;;1893590;75;21070;-82
2023/04/03 01:49:41;;;;;;;0.37;0.37;;;8.90;99.90;;;;;;1889418;75;21117;-82
2023/04/03 01:52:33;;;;;;;0.62;0.53;;;8.90;99.90;;;;;;1899968;75;21094;-82
2023/04/03 01:55:24;;;;;;;0.70;0.40;;;9.00;99.90;;;;;;1886934;75;21192;-82
2023/04/03 01:58:16;;;;;;;0.93;0.50;;;9.00;99.90;;;;;;1879390;76;21184;-82
2023/04/03 02:01:08;;;;;;;0.62;0.60;;;9.10;99.90;;;;;;1911186;75;21106;-82
2023/04/03 02:04:00;;;;;;;0.78;0.50;;;9.10;99.90;;;;;;1890491;75;21175;-82
2023/04/03 02:06:52;;;;;;;1.20;0.60;;;9.10;99.90;;;;;;1890908;75;21101;-82
2023/04/03 02:09:44;;;;;;;0.50;0.50;;;9.10;99.90;;;;;;1893619;75;21095;-83
2023/04/03 02:12:35;;;;;;;0.93;0.65;;;9.00;99.90;;;;;;1890524;75;21113;-83
2023/04/03 02:15:27;;;;;;;0.68;0.50;;;9.00;99.90;;;;;;1890356;75;21134;-81
2023/04/03 02:18:19;;;;;;;0.80;0.60;;;9.00;99.90;;;;;;1891166;75;21122;-81
2023/04/03 02:21:10;;;;;;;0.50;0.50;;;8.90;99.90;;;;;;1895249;75;21573;-81
2023/04/03 02:24:02;;;;;;;0.80;0.65;;;8.90;99.90;;;;;;1879453;76;21098;-81
2023/04/03 02:26:54;;;;;;;0.70;0.68;;;8.90;99.90;;;;;;1885589;75;21168;-81
2023/04/03 02:29:45;;;;;;;0.57;0.57;;;8.90;99.90;;;;;;1891220;75;21172;-83
2023/04/03 02:32:37;;;;;;;0.60;0.60;;;8.90;99.90;;;;;;1910151;75;21512;-85
2023/04/03 02:35:29;;;;;;;2.00;0.90;;;8.90;99.90;;;;;;1877068;76;21571;-83
2023/04/03 02:38:20;;;;;;;1.07;0.55;;;8.90;99.90;;;;;;1867571;75;21086;-83
2023/04/03 02:41:13;;;;;;;1.17;0.50;;;8.80;99.90;;;;;;1893014;75;21651;-83
2023/04/03 02:44:06;;;;;;;0.90;0.50;;;8.80;99.90;;;;;;1891167;75;21102;-81
2023/04/03 02:46:57;;;;;;;0.70;0.50;;;8.70;99.90;;;;;;1871582;77;21631;-81
2023/04/03 02:49:49;;;;;;;0.50;0.50;;;8.70;99.90;;;;;;1892788;75;21179;-81
2023/04/03 02:52:40;;;;;;;0.80;0.60;;;8.70;99.90;;;;;;1893343;75;21110;-81
2023/04/03 02:55:32;;;;;;;1.30;0.68;;;8.60;99.90;;;;;;1871853;75;21130;-81
2023/04/03 02:58:23;;;;;;;0.85;0.72;;;8.60;99.90;;;;;;1887500;75;21166;-81
2023/04/03 03:01:16;;;;;;;0.68;0.62;;;8.60;99.90;;;;;;1886947;75;21110;-81
2023/04/03 03:04:07;;;;;;;0.42;0.37;;;8.60;99.90;;;;;;1883459;75;21204;-83
2023/04/03 03:06:58;;;;;;;1.07;0.57;;;8.50;99.90;;;;;;1881558;75;21201;-82
2023/04/03 03:09:51;;;;;;;0.85;0.50;;;8.60;99.90;;;;;;1900353;75;21542;-82
2023/04/03 03:12:42;;;;;;;0.80;0.65;;;8.60;99.90;;;;;;1890474;75;21110;-82
2023/04/03 03:15:34;;;;;;;0.80;0.80;;;8.50;99.90;;;;;;1893384;75;21106;-81
2023/04/03 03:18:25;;;;;;;0.60;0.60;;;8.50;99.90;;;;;;1893370;75;21164;-81
2023/04/03 03:21:17;;;;;;;0.60;0.60;;;8.50;99.90;;;;;;1891704;75;21124;-82
2023/04/03 03:24:09;;;;;;;0.80;0.70;;;8.50;99.90;;;;;;1888820;75;21130;-81
2023/04/03 03:27:01;;;;;;;0.50;0.50;;;8.50;99.90;;;;;;1881505;75;21160;-81
2023/04/03 03:29:52;;;;;;;1.15;0.80;;;8.60;99.90;;;;;;1898521;75;21127;-81
2023/04/03 03:32:44;;;;;;;0.75;0.75;;;8.70;99.90;;;;;;1893002;75;21086;-81
2023/04/03 03:35:37;;;;;;;0.75;0.62;;;8.70;99.90;;;;;;1879530;75;21142;-81
2023/04/03 03:38:28;;;;;;;0.60;0.60;;;8.70;99.90;;;;;;1881461;76;21161;-81
2023/04/03 03:41:21;;;;;;;1.00;0.80;;;8.70;99.90;;;;;;1874995;75;21165;-81
2023/04/03 03:44:12;;;;;;;0.60;0.60;;;8.70;99.90;;;;;;1879706;76;21168;-82
2023/04/03 03:47:06;;;;;;;0.70;0.70;;;8.70;99.90;;;;;;1875158;76;21067;-82
2023/04/03 03:49:57;;;;;;;0.42;0.42;;;8.70;99.90;;;;;;1864048;76;21154;-81
2023/04/03 03:52:49;;;;;;;0.70;0.70;;;8.70;99.90;;;;;;1870385;76;21161;-82
2023/04/03 03:55:40;;;;;;;0.90;0.90;;;8.60;99.90;;;;;;1812029;78;21197;-81
2023/04/03 03:58:32;;;;;;;1.00;0.90;;;8.70;99.90;;;;;;1814091;78;21150;-81
2023/04/03 04:01:25;;;;;;;1.20;1.00;;;8.60;99.90;;;;;;1875613;76;21163;-82
2023/04/03 04:04:17;;;;;;;1.10;1.00;;;8.60;99.90;;;;;;1878627;76;21124;-82
2023/04/03 04:07:09;;;;;;;1.10;0.93;;;8.60;99.90;;;;;;1858230;76;21107;-81
2023/04/03 04:10:02;;;;;;;1.10;0.95;;;8.70;99.90;;;;;;1859822;77;21143;-81
2023/04/03 04:12:54;;;;;;;1.40;1.30;;;8.70;99.90;;;;;;1867371;76;21180;-81
2023/04/03 04:15:47;;;;;;;1.55;1.27;;;8.60;99.90;;;;;;1855627;76;21217;-81
2023/04/03 04:18:39;;;;;;;1.67;1.27;;;8.60;99.90;;;;;;1874309;76;21136;-81
2023/04/03 04:21:31;;;;;;;1.52;1.42;;;8.60;99.90;;;;;;1863675;76;21141;-81
2023/04/03 04:24:23;;;;;;;1.40;1.30;;;8.60;99.90;;;;;;1884059;76;21172;-81
2023/04/03 04:27:16;;;;;;;1.55;1.45;;;8.60;99.90;;;;;;1867014;76;21102;-81
2023/04/03 04:30:13;;;;;;;2.00;1.90;;;8.60;99.90;;;;;;1867400;76;21180;-81
2023/04/03 04:33:08;;;;;;;2.10;1.90;;;8.60;99.90;;;;;;1867694;76;21190;-81
2023/04/03 04:36:00;;;;;;;2.12;1.92;;;8.60;99.90;;;;;;1868950;76;21100;-81
2023/04/03 04:38:53;;;;;;;1.60;1.50;;;8.50;99.90;;;;;;1894282;75;21109;-81
2023/04/03 04:41:46;;;;;;;3.62;1.92;;;8.50;99.90;;;;;;1877256;76;21184;-83
2023/04/03 04:44:37;;;;;;;4.58;1.85;;;8.50;99.90;;;;;;1881040;75;21106;-82
2023/04/03 04:47:31;;;;;;;1.70;1.60;;;8.60;99.90;;;;;;1908655;74;21513;-82
2023/04/03 04:50:22;;;;;;;2.40;1.65;;;8.60;99.90;;;;;;1885229;75;21155;-82
2023/04/03 04:53:13;;;;;;;1.70;1.60;;;8.70;99.90;;;;;;1875468;76;21180;-82
2023/04/03 04:56:07;;;;;;;1.42;1.32;;;8.60;99.90;;;;;;1884152;75;21058;-82
2023/04/03 04:59:00;;;;;;;1.80;1.70;;;8.60;99.90;;;;;;1910093;75;21101;-81
2023/04/03 05:01:52;;;;;;;1.90;1.80;;;8.60;99.90;;;;;;1900049;75;21113;-82
2023/04/03 05:04:44;;;;;;;2.22;2.02;;;8.60;99.90;;;;;;1912533;75;21106;-82
2023/04/03 05:07:37;;;;;;;2.10;1.90;;;8.60;99.90;;;;;;1891018;75;21136;-82
2023/04/03 05:10:29;;;;;;;1.90;1.77;;;8.60;99.90;;;;;;1890918;75;21156;-82
2023/04/03 05:13:21;;;;;;;2.27;1.80;;;8.60;99.90;;;;;;1890988;75;21142;-82
2023/04/03 05:16:13;;;;;;;2.20;2.00;;;8.60;99.90;;;;;;1896980;75;21114;-82
2023/04/03 05:19:05;;;;;;;2.05;1.85;;;8.60;99.90;;;;;;1879890;76;21094;-82
2023/04/03 05:21:56;;;;;;;1.70;1.60;;;8.70;99.90;;;;;;1897390;75;21122;-82
2023/04/03 05:24:49;;;;;;;3.45;2.70;;;8.70;99.90;;;;;;1887436;75;21120;-82
2023/04/03 05:27:41;;;;;;;1.77;1.67;;;8.70;99.90;;;;;;1885487;75;21175;-92
2023/04/03 05:30:35;;;;;;;1.60;1.50;;;8.70;99.90;;;;;;1877836;76;21075;-81
2023/04/03 05:33:28;;;;;;;1.82;1.72;;;8.70;99.90;;;;;;1874019;75;21155;-79
2023/04/03 05:36:21;;;;;;;2.05;1.30;;;8.80;99.90;;;;;;1881793;75;21110;-77
2023/04/03 05:39:14;;;;;;;1.60;1.50;;;8.90;99.90;;;;;;1887942;75;21145;-79
2023/04/03 05:42:06;;;;;;;1.52;1.30;;;8.90;99.90;;;;;;1877153;75;21146;-78
2023/04/03 05:44:58;;;;;;;1.60;1.50;;;8.90;99.90;;;;;;1876496;76;21122;-77
2023/04/03 05:47:50;;;;;;;2.12;1.62;;;9.00;99.90;;;;;;1884480;75;21123;-77
2023/04/03 05:50:43;;;;;;;1.90;1.60;;;9.00;99.90;;;;;;1890135;75;21299;-77
2023/04/03 05:53:38;;;;;;;1.80;1.70;;;9.00;99.90;;;;;;1895137;75;21125;-79
2023/04/03 05:56:30;;;;;;;2.27;1.67;;;9.00;99.90;;;;;;1871580;76;21216;-79
2023/04/03 05:59:22;;;;;;;4.08;3.65;;;9.00;99.90;;;;;;1878584;75;21122;-77
2023/04/03 06:02:16;;;;;;;2.92;1.80;;;9.10;99.90;;;;;;1903467;75;21109;-77
2023/04/03 06:05:11;;;;;;;1.92;1.82;;;9.10;99.90;;;;;;1883461;75;21126;-77
2023/04/03 06:08:04;;;;;;;1.87;1.77;;;9.00;99.90;;;;;;1879788;76;21222;-77
2023/04/03 06:10:56;;;;;;;1.80;1.70;;;9.10;99.90;;;;;;1893519;75;21630;-77
2023/04/03 06:13:47;;;;;;;1.40;1.30;;;9.10;99.90;;;;;;1886301;75;21185;-79
2023/04/03 06:16:41;;;;;;;2.45;1.55;;;9.10;99.90;;;;;;1879406;75;21078;-77
2023/04/03 06:19:33;;;;;;;1.77;1.65;;;9.10;99.90;;;;;;1890285;75;21157;-76
2023/04/03 06:22:25;;;;;;;1.55;1.45;;;9.10;99.90;;;;;;1871646;77;21114;-80
2023/04/03 06:25:17;;;;;;;1.60;1.17;;;9.10;99.90;;;;;;1877928;75;21171;-79
2023/04/03 06:28:10;;;;;;;1.35;0.90;;;9.10;99.90;;;;;;1882263;75;21209;-78
2023/04/03 06:31:01;;;;;;;1.25;1.15;;;9.20;99.90;;;;;;1885372;75;21118;-80
2023/04/03 06:36:32;;;;;;;1.25;1.15;;;9.30;99.90;;;;;;1957032;72;22190;-77
2023/04/03 06:39:24;;;;;;;1.42;1.20;;;9.30;99.90;;;;;;1915132;75;21141;-77
2023/04/03 06:42:15;;;;;;;1.70;0.70;;;9.40;99.90;;;;;;1915997;75;21527;-79
2023/04/03 06:45:12;;;;;;;0.65;0.65;;;9.50;99.90;;;;;;1916267;75;21122;-75
2023/04/03 06:48:03;;;;;;;1.05;0.60;;;9.40;99.90;;;;;;1939482;73;21110;-77
2023/04/03 06:50:55;;;;;;;0.72;0.60;;;9.50;99.90;;;;;;1916079;73;21059;-76
2023/04/03 06:53:46;;;;;;;1.25;0.57;;;9.50;99.90;;;;;;1915659;75;21551;-76
2023/04/03 06:59:17;;;;;;;0.88;0.55;;;9.40;99.90;;;;;;1944951;72;22844;-77
2023/04/03 07:02:13;;;;;;;0.60;0.60;;;9.50;99.90;;;;;;1918137;73;21163;-76
2023/04/03 07:05:05;;;;;;;0.70;0.70;;;9.60;99.90;;;;;;1938031;73;21172;-76
2023/04/03 07:07:56;;;;;;;0.60;0.60;;;9.70;99.90;;;;;;1934882;73;21109;-76
2023/04/03 07:10:48;;;;;;;0.40;0.40;;;9.70;99.90;;;;;;1916890;75;21167;-78
2023/04/03 07:13:39;;;;;;;0.50;0.50;;;9.70;99.90;;;;;;1916849;75;21153;-76
2023/04/03 07:16:31;;;;;;;0.37;0.37;;;9.70;99.90;;;;;;1916809;75;21063;-76
2023/04/03 07:19:24;;;;;;;0.37;0.30;;;9.70;99.90;;;;;;1919113;73;21118;-77
2023/04/03 07:24:56;;;;;;;0.40;0.40;;;9.90;99.90;;;;;;1967107;72;22148;-76
2023/04/03 07:27:47;;;;;;;0.30;0.30;;;9.80;99.90;;;;;;1911430;73;21121;-78
2023/04/03 07:30:44;;;;;;;1.32;0.50;;;9.80;99.90;;;;;;1921250;73;21529;-76
2023/04/03 07:33:37;;;;;;;0.78;0.40;;;9.80;99.90;;;;;;1925503;73;21116;-78
2023/04/03 07:36:28;;;;;;;1.25;0.60;;;9.80;99.90;;;;;;1917036;75;21106;-78
2023/04/03 07:39:20;;;;;;;0.70;0.53;;;9.90;99.90;;;;;;1916857;75;21156;-77
2023/04/03 07:42:12;;;;;;;1.40;0.60;;;9.90;99.90;;;;;;1936536;73;21110;-77
2023/04/03 07:45:04;;;;;;;1.25;0.65;;;9.90;99.90;;;;;;1916946;75;21577;-76
2023/04/03 07:47:55;;;;;;;0.90;0.70;;;9.90;99.90;;;;;;1916803;75;21203;-76
2023/04/03 07:50:47;;;;;;;1.20;0.60;;;9.90;99.90;;;;;;1916376;75;21128;-78
2023/04/03 07:53:38;;;;;;;2.55;0.95;;;10.00;99.90;;;;;;1916539;75;21617;-75
2023/04/03 07:56:30;;;;;;;1.20;1.10;;;10.00;99.90;;;;;;1916272;75;21050;-75
2023/04/03 07:59:22;;;;;;;2.05;1.20;;;9.90;99.90;;;;;;1916841;75;21156;-75
2023/04/03 08:02:14;;;;;;;1.65;1.50;;;10.00;99.90;;;;;;1916585;75;21102;-78
2023/04/03 08:05:06;;;;;;;1.60;1.35;;;10.00;99.90;;;;;;1916575;75;21055;-76
2023/04/03 08:07:58;;;;;;;1.47;1.30;;;10.00;99.90;;;;;;1936981;73;21181;-77
2023/04/03 08:10:51;;;;;;;1.15;0.80;;;9.90;99.90;;;;;;1918504;73;21113;-76
2023/04/03 08:13:43;;;;;;;1.60;1.50;;;9.90;99.90;;;;;;1879928;76;21252;-76
2023/04/03 08:16:34;;;;;;;1.32;1.10;;;9.90;99.90;;;;;;1860228;76;21118;-76
2023/04/03 08:19:26;;;;;;;1.57;1.30;;;10.00;99.90;;;;;;1932688;73;21059;-76
2023/04/03 08:22:17;;;;;;;1.30;1.20;;;9.90;99.90;;;;;;1939915;73;21180;-76
2023/04/03 08:25:11;;;;;;;2.00;1.12;;;10.00;99.90;;;;;;1916758;73;21203;-76
2023/04/03 08:28:02;;;;;;;2.33;1.27;;;10.10;99.90;;;;;;1916883;75;21101;-76
2023/04/03 08:30:54;;;;;;;1.37;1.17;;;10.10;99.90;;;;;;1916752;75;21106;-77
2023/04/03 08:33:45;;;;;;;1.77;1.67;;;10.00;99.90;;;;;;1903973;74;21287;-76
2023/04/03 08:36:36;;;;;;;1.62;1.52;;;10.00;99.90;;;;;;1906819;73;21188;-76
2023/04/03 08:39:28;;;;;;;1.67;1.57;;;10.00;99.90;;;;;;1904278;75;21123;-78
2023/04/03 08:42:27;;;;;;;2.50;1.50;;;10.10;99.90;;;;;;1935480;73;21139;-76
2023/04/03 08:45:21;;;;;;;1.70;1.60;;;10.20;99.90;;;;;;1916403;75;21170;-75
2023/04/03 08:50:59;;;;;;;3.05;1.70;;;10.20;99.90;;;;;;1954164;72;22127;-77
2023/04/03 08:53:57;;;;;;;2.25;1.87;;;10.30;99.90;;;;;;1905152;75;21106;-76
2023/04/03 08:56:48;;;;;;;2.17;1.98;;;10.30;99.90;;;;;;1883982;76;21094;-75
2023/04/03 08:59:41;;;;;;;1.82;1.72;;;10.40;99.90;;;;;;1879862;76;21101;-75
2023/04/03 09:02:38;;;;;;;1.80;1.70;;;10.30;99.90;;;;;;1904982;75;21102;-75
2023/04/03 09:05:37;;;;;;;2.20;2.00;;;10.40;99.90;;;;;;1906419;75;21172;-75
2023/04/03 09:08:33;;;;;;;1.77;1.47;;;10.30;99.90;;;;;;1905605;75;21168;-74
2023/04/03 09:11:28;;;;;;;1.62;1.52;;;10.40;99.90;;;;;;1916720;75;21130;-75
2023/04/03 09:14:23;;;;;;;1.90;1.52;;;10.40;99.90;;;;;;1908948;74;21106;-75
2023/04/03 09:17:19;;;;;;;2.08;1.50;;;10.40;99.90;;;;;;1913322;75;21160;-75
2023/04/03 09:20:20;;;;;;;1.80;1.70;;;10.50;99.90;;;;;;1894735;75;21188;-75
2023/04/03 09:23:33;;;;;;;2.00;1.80;;;10.50;99.90;;;;;;1895138;75;21404;-75
2023/04/03 09:26:27;;;;;;;1.80;1.70;;;10.50;99.90;;;;;;1895188;75;21118;-75
2023/04/03 09:29:21;;;;;;;1.67;1.10;;;10.70;99.90;;;;;;1917005;75;21593;-75
2023/04/03 09:32:24;;;;;;;1.90;1.67;;;10.70;99.90;;;;;;1897393;75;21095;-75
2023/04/03 09:35:27;;;;;;;1.35;1.20;;;10.70;99.90;;;;;;1894768;75;21128;-75
2023/04/03 09:38:23;;;;;;;1.57;1.47;;;10.70;99.90;;;;;;1895228;75;21511;-75
2023/04/03 09:41:19;;;;;;;1.50;1.40;;;10.60;99.90;;;;;;1894050;75;21095;-75
2023/04/03 09:44:26;;;;;;;2.35;1.55;;;10.50;99.90;;;;;;1916354;75;21080;-76
2023/04/03 09:47:25;;;;;;;1.70;1.60;;;10.50;99.90;;;;;;1883879;76;21215;-75
2023/04/03 09:50:23;;;;;;;1.75;1.52;;;10.40;99.90;;;;;;1906228;74;21125;-75
2023/04/03 09:53:27;;;;;;;1.15;1.05;;;10.40;99.90;;;;;;1919816;74;21171;-75
2023/04/03 09:56:26;;;;;;;2.20;1.57;;;10.60;99.90;;;;;;1915950;73;21160;-77
2023/04/03 10:02:05;;;;;;;1.65;1.55;;;10.70;99.90;;;;;;1952965;72;22174;-77
2023/04/03 10:04:56;;;;;;;3.22;1.95;;;10.80;99.90;;;;;;1932165;73;21064;-75
2023/04/03 10:07:50;;;;;;;1.60;1.50;;;10.80;99.90;;;;;;1917090;75;21094;-76
2023/04/03 10:10:46;;;;;;;1.30;1.20;;;10.80;99.90;;;;;;1917199;75;21156;-75
2023/04/03 10:13:40;;;;;;;1.42;1.27;;;10.80;99.90;;;;;;1916949;75;21114;-76
2023/04/03 10:16:39;;;;;;;1.30;1.02;;;11.00;99.90;;;;;;1917142;75;21180;-76
2023/04/03 10:19:39;;;;;;;1.82;1.70;;;10.90;99.90;;;;;;1917054;75;21139;-76
2023/04/03 10:22:34;;;;;;;1.40;1.30;;;10.80;99.90;;;;;;1917099;73;21138;-75
2023/04/03 10:25:30;;;;;;;1.40;1.30;;;10.80;99.90;;;;;;1916000;73;21176;-75
2023/04/03 10:28:24;;;;;;;2.27;1.50;;;10.80;99.90;;;;;;1923543;73;21047;-75
2023/04/03 10:31:20;;;;;;;1.50;1.40;;;10.90;99.90;;;;;;1928283;73;21102;-75
2023/04/03 10:34:16;;;;;;;2.17;1.30;;;10.90;99.90;;;;;;1930647;73;21114;-75
2023/04/03 10:37:12;;;;;;;1.20;1.10;;;11.00;99.90;;;;;;1917082;75;21109;-74
2023/04/03 10:43:01;;;;;;;1.35;1.25;;;11.10;99.90;;;;;;1884424;76;21110;-74
2023/04/03 10:45:57;;;;;;;1.37;1.10;;;11.10;99.90;;;;;;1906338;75;21109;-75
2023/04/03 10:49:06;;;;;;;1.37;1.27;;;11.00;99.90;;;;;;1884136;76;21074;-76
2023/04/03 10:52:04;;;;;;;1.55;1.12;;;11.00;99.90;;;;;;1884271;76;21158;-74
2023/04/03 10:55:00;;;;;;;2.75;1.35;;;11.00;99.90;;;;;;1884310;76;21196;-74
2023/04/03 10:57:51;;;;;;;1.23;0.83;;;11.00;99.90;;;;;;1884446;76;21121;-74
2023/04/03 11:03:31;;;;;;;1.65;0.70;;;11.10;99.90;;;;;;1955300;72;22342;-74
2023/04/03 11:06:26;;;;;;;0.80;0.80;;;11.20;99.90;;;;;;1916864;75;21220;-76
2023/04/03 11:09:23;;;;;;;1.52;0.68;;;11.20;99.90;;;;;;1916847;75;21106;-74
2023/04/03 11:12:18;;;;;;;1.00;0.62;;;11.30;99.90;;;;;;1924206;73;21101;-75
2023/04/03 11:15:14;;;;;;;1.45;0.60;;;11.30;99.90;;;;;;1925005;73;21196;-74
2023/04/03 11:18:09;;;;;;;1.07;0.65;;;11.30;99.90;;;;;;1917092;75;21132;-74
2023/04/03 11:21:05;;;;;;;0.60;0.60;;;11.50;99.90;;;;;;1916925;75;21090;-75
2023/04/03 11:23:59;;;;;;;1.62;0.57;;;11.60;99.90;;;;;;1928765;73;21251;-74
2023/04/03 11:26:52;;;;;;;1.27;0.57;;;11.60;99.90;;;;;;1921007;73;21109;-75
2023/04/03 11:29:47;;;;;;;1.00;0.65;;;11.60;99.90;;;;;;1916997;75;21097;-75
2023/04/03 11:33:04;;;;;;;0.42;0.40;;;11.80;99.90;;;;;;1936547;73;21152;-75
2023/04/03 11:35:59;;;;;;;2.70;0.70;;;11.90;99.90;;;;;;1937225;73;21157;-76
2023/04/03 11:38:52;;;;;;;0.78;0.70;;;11.90;99.90;;;;;;1935400;73;21062;-75
2023/04/03 11:41:46;;;;;;;1.00;0.90;;;11.90;99.90;;;;;;1916624;75;21110;-75
2023/04/03 11:44:39;;;;;;;0.80;0.60;;;11.90;99.90;;;;;;1916721;75;21111;-74
2023/04/03 11:47:51;;;;;;;1.02;0.60;;;11.90;99.90;;;;;;1935945;73;21154;-74
2023/04/03 11:50:46;;;;;;;0.70;0.50;;;11.80;99.90;;;;;;1929549;74;21111;-74
2023/04/03 11:53:38;;;;;;;0.82;0.62;;;11.90;99.90;;;;;;1916838;75;21137;-74
2023/04/03 11:56:32;;;;;;;1.65;0.70;;;11.90;99.90;;;;;;1916503;75;21242;-74
2023/04/03 11:59:27;;;;;;;0.60;0.60;;;11.90;99.90;;;;;;1916735;75;21179;-75
2023/04/03 12:02:38;;;;;;;0.60;0.60;;;11.80;99.90;;;;;;1915565;75;21191;-75
2023/04/03 12:05:32;;;;;;;1.10;0.65;;;12.00;99.90;;;;;;1936424;73;21125;-75
2023/04/03 12:08:28;;;;;;;0.93;0.80;;;12.00;99.90;;;;;;1916852;75;21101;-75
2023/04/03 12:11:27;;;;;;;1.47;0.72;;;12.10;99.90;;;;;;1916917;75;21109;-74
2023/04/03 12:14:18;;;;;;;0.95;0.72;;;12.20;99.90;;;;;;1916411;75;21119;-75
2023/04/03 12:17:20;;;;;;;0.57;0.57;;;12.30;99.90;;;;;;1916339;75;21102;-75
2023/04/03 12:21:07;;;;;;;1.30;0.80;;;12.40;99.90;;;;;;1908814;74;21055;-75
2023/04/03 12:26:48;;;;;;;1.17;0.82;;;12.50;99.90;;;;;;1969611;72;22201;-76
2023/04/03 12:29:44;;;;;;;1.12;0.82;;;12.50;99.90;;;;;;1917015;75;21168;-76
2023/04/03 12:32:46;;;;;;;3.62;0.90;;;12.40;99.90;;;;;;1930387;73;21134;-76
2023/04/03 12:35:43;;;;;;;1.90;0.95;;;12.30;99.90;;;;;;1916757;75;21489;-76
2023/04/03 12:38:44;;;;;;;2.17;1.10;;;12.30;99.90;;;;;;1929193;73;21188;-76
2023/04/03 12:41:42;;;;;;;1.90;0.70;;;12.40;99.90;;;;;;1918477;73;21215;-75
2023/04/03 12:44:41;;;;;;;1.40;1.10;;;12.60;99.90;;;;;;1939917;73;21109;-76
2023/04/03 12:50:24;;;;;;;3.08;1.12;;;12.40;99.90;;;;;;1957457;72;22234;-76
2023/04/03 12:53:19;;;;;;;2.37;1.02;;;12.60;99.90;;;;;;1897586;75;21094;-76
2023/04/03 12:56:26;;;;;;;1.62;1.30;;;12.60;99.90;;;;;;1894600;75;21117;-75
2023/04/03 12:59:21;;;;;;;1.10;1.00;;;12.60;99.90;;;;;;1894521;75;21095;-75
2023/04/03 13:02:27;;;;;;;2.27;1.20;;;12.40;99.90;;;;;;1914042;75;21063;-75
2023/04/03 13:05:22;;;;;;;1.60;1.50;;;12.20;99.90;;;;;;1910070;73;21090;-76
2023/04/03 13:08:15;;;;;;;2.17;1.50;;;11.90;99.90;;;;;;1891517;75;21857;-75
2023/04/03 13:11:09;;;;;;;1.92;1.75;;;11.70;99.90;;;;;;1897358;75;21701;-76
2023/04/03 13:14:04;;;;;;;1.70;1.30;;;11.60;99.90;;;;;;1886434;75;21068;-76
2023/04/03 13:16:57;;;;;;;2.27;1.70;;;11.50;99.90;;;;;;1888325;75;21176;-76
2023/04/03 13:19:50;;;;;;;2.90;1.70;;;11.60;99.90;;;;;;1895464;75;21118;-76
2023/04/03 13:22:45;;;;;;;2.02;1.80;;;11.60;99.90;;;;;;1900412;75;21110;-75
2023/04/03 13:25:39;;;;;;;2.55;1.92;;;11.60;99.90;;;;;;1896183;75;21139;-76
2023/04/03 13:28:32;;;;;;;1.95;1.82;;;11.40;99.90;;;;;;1894792;75;21122;-75
2023/04/03 13:31:27;;;;;;;3.27;1.90;;;11.40;99.90;;;;;;1894853;75;21137;-73
2023/04/03 13:34:21;;;;;;;2.12;1.75;;;11.30;99.90;;;;;;1896797;75;21123;-73
2023/04/03 13:37:22;;;;;;;2.70;1.87;;;11.40;99.90;;;;;;1899224;75;21064;-73
2023/04/03 13:40:14;;;;;;;3.33;2.10;;;11.50;99.90;;;;;;1896505;75;21150;-73
2023/04/03 13:43:09;;;;;;;1.98;1.77;;;11.50;99.90;;;;;;1894949;75;21124;-73
2023/04/03 13:46:06;;;;;;;1.70;1.25;;;11.70;99.90;;;;;;1895046;75;21121;-73
2023/04/03 13:48:58;;;;;;;1.98;1.70;;;11.80;99.90;;;;;;1894343;75;21115;-73
2023/04/03 13:51:51;;;;;;;2.08;1.87;;;11.80;99.90;;;;;;1897033;75;21086;-73
2023/04/03 13:54:45;;;;;;;2.20;1.98;;;11.80;99.90;;;;;;1856759;76;21561;-74
2023/04/03 13:57:36;;;;;;;2.15;1.85;;;11.80;99.90;;;;;;1907716;75;21509;-75
2023/04/03 14:00:34;;;;;;;2.05;1.85;;;11.70;99.90;;;;;;1902745;75;21163;-74
2023/04/03 14:03:28;;;;;;;1.85;1.55;;;11.80;99.90;;;;;;1900189;75;21188;-75
2023/04/03 14:06:20;;;;;;;2.30;2.10;;;11.80;99.90;;;;;;1859326;76;21187;-73
2023/04/03 14:09:11;;;;;;;4.83;2.17;;;11.80;99.90;;;;;;1881719;75;21548;-74
2023/04/03 14:12:06;;;;;;;1.90;1.72;;;11.80;99.90;;;;;;1906832;75;21573;-73
2023/04/03 14:14:58;;;;;;;2.25;2.05;;;11.80;99.90;;;;;;1891884;75;21105;-73
2023/04/03 14:17:51;;;;;;;2.50;1.90;;;12.00;99.90;;;;;;1896844;75;21260;-74
2023/04/03 14:20:43;;;;;;;2.22;2.00;;;12.40;99.90;;;;;;1891616;75;21094;-73
2023/04/03 14:23:35;;;;;;;5.22;2.35;;;11.90;99.90;;;;;;1855566;76;21109;-73
2023/04/03 14:26:30;;;;;;;1.87;1.65;;;11.70;99.90;;;;;;1890339;75;21067;-73
2023/04/03 14:29:23;;;;;;;2.50;2.30;;;11.60;99.90;;;;;;1886421;75;21062;-75
2023/04/03 14:32:15;;;;;;;1.40;1.25;;;11.60;99.90;;;;;;1893748;75;21147;-74
2023/04/03 14:35:08;;;;;;;2.35;2.12;;;11.40;99.90;;;;;;1913205;75;21565;-74
2023/04/03 14:37:59;;;;;;;2.70;2.00;;;11.40;99.90;;;;;;1852840;76;21166;-76
2023/04/03 14:40:51;;;;;;;2.12;1.85;;;11.50;99.90;;;;;;1899800;75;21101;-73
2023/04/03 14:43:45;;;;;;;1.72;1.60;;;11.80;99.90;;;;;;1895742;75;21098;-73
2023/04/03 14:46:40;;;;;;;2.20;2.00;;;12.80;99.90;;;;;;1891259;75;21584;-73
2023/04/03 14:49:32;;;;;;;2.20;1.75;;;13.30;99.90;;;;;;1885092;75;21062;-73
2023/04/03 14:52:26;;;;;;;3.67;1.75;;;13.40;99.90;;;;;;1902258;75;21118;-73
2023/04/03 14:55:20;;;;;;;1.92;1.50;;;13.90;99.90;;;;;;1906514;73;21969;-74
2023/04/03 14:58:15;;;;;;;4.20;2.40;;;13.90;99.90;;;;;;1894128;75;21211;-73
2023/04/03 15:01:06;;;;;;;3.47;2.08;;;13.20;99.90;;;;;;1892332;75;21152;-73
2023/04/03 15:03:58;;;;;;;2.22;2.00;;;13.60;99.90;;;;;;1886571;75;21204;-73
2023/04/03 15:06:52;;;;;;;2.45;1.82;;;14.00;99.90;;;;;;1901943;75;21098;-73
2023/04/03 15:09:44;;;;;;;3.22;1.47;;;13.00;99.90;;;;;;1896684;75;21100;-73
2023/04/03 15:12:35;;;;;;;1.98;1.77;;;12.40;99.90;;;;;;1880436;75;21130;-73
2023/04/03 15:15:30;;;;;;;2.40;1.87;;;12.10;99.90;;;;;;1886180;75;21054;-73
2023/04/03 15:21:04;;;;;;;2.05;1.65;;;11.80;99.90;;;;;;1954554;72;22233;-75
2023/04/03 15:23:55;;;;;;;2.15;1.98;;;12.00;99.90;;;;;;1894618;74;21086;-74
2023/04/03 15:29:26;;;;;;;2.65;2.02;;;12.10;99.90;;;;;;1930383;72;22159;-74
2023/04/03 15:32:17;;;;;;;2.45;2.00;;;12.90;99.90;;;;;;1904562;75;21070;-73
2023/04/03 15:35:10;;;;;;;2.67;2.08;;;14.10;99.90;;;;;;1878174;75;21169;-73
2023/04/03 15:38:01;;;;;;;1.80;1.50;;;14.20;99.90;;;;;;1904583;75;21116;-74
2023/04/03 15:40:52;;;;;;;2.85;2.27;;;13.40;99.90;;;;;;1904737;75;21051;-73
2023/04/03 15:43:45;;;;;;;1.82;1.72;;;13.30;99.90;;;;;;1904703;75;21177;-73